sensor_id;sensor_type;location;lat;lon;timestamp;P1;durP1;ratioP1;P2;durP2;ratioP2
59766;SDS011;46248;58.364;25.582;2023-09-12T00:02:24;11.93;;;9.13;;
59766;SDS011;46248;58.364;25.582;2023-09-12T00:05:50;12.20;;;7.43;;
59766;SDS011;46248;58.364;25.582;2023-09-12T00:09:12;10.40;;;7.50;;
59766;SDS011;46248;58.364;25.582;2023-09-12T00:12:34;9.27;;;7.60;;
59766;SDS011;46248;58.364;25.582;2023-09-12T00:15:56;8.52;;;7.22;;
59766;SDS011;46248;58.364;25.582;2023-09-12T00:19:20;8.48;;;6.68;;
59766;SDS011;46248;58.364;25.582;2023-09-12T00:22:41;7.88;;;6.65;;
59766;SDS011;46248;58.364;25.582;2023-09-12T00:26:03;8.35;;;6.90;;
59766;SDS011;46248;58.364;25.582;2023-09-12T00:29:25;9.65;;;7.07;;
59766;SDS011;46248;58.364;25.582;2023-09-12T00:32:47;9.23;;;7.05;;
59766;SDS011;46248;58.364;25.582;2023-09-12T00:36:10;11.88;;;8.50;;
59766;SDS011;46248;58.364;25.582;2023-09-12T00:39:32;8.10;;;7.15;;
59766;SDS011;46248;58.364;25.582;2023-09-12T00:42:54;10.63;;;7.68;;
59766;SDS011;46248;58.364;25.582;2023-09-12T00:46:18;9.13;;;6.90;;
59766;SDS011;46248;58.364;25.582;2023-09-12T00:49:42;9.13;;;6.63;;
59766;SDS011;46248;58.364;25.582;2023-09-12T00:53:16;9.07;;;7.03;;
59766;SDS011;46248;58.364;25.582;2023-09-12T00:56:39;9.35;;;7.25;;
59766;SDS011;46248;58.364;25.582;2023-09-12T01:00:02;9.95;;;7.60;;
59766;SDS011;46248;58.364;25.582;2023-09-12T01:03:31;12.10;;;9.50;;
59766;SDS011;46248;58.364;25.582;2023-09-12T01:06:53;12.25;;;8.75;;
59766;SDS011;46248;58.364;25.582;2023-09-12T01:10:16;13.15;;;10.10;;
59766;SDS011;46248;58.364;25.582;2023-09-12T01:13:38;12.38;;;9.50;;
59766;SDS011;46248;58.364;25.582;2023-09-12T01:16:59;13.07;;;8.95;;
59766;SDS011;46248;58.364;25.582;2023-09-12T01:20:24;13.68;;;9.45;;
59766;SDS011;46248;58.364;25.582;2023-09-12T01:23:51;12.63;;;9.50;;
59766;SDS011;46248;58.364;25.582;2023-09-12T01:27:27;13.20;;;9.55;;
59766;SDS011;46248;58.364;25.582;2023-09-12T01:30:51;16.98;;;10.65;;
59766;SDS011;46248;58.364;25.582;2023-09-12T01:34:14;13.27;;;10.00;;
59766;SDS011;46248;58.364;25.582;2023-09-12T01:37:36;10.05;;;7.82;;
59766;SDS011;46248;58.364;25.582;2023-09-12T01:40:57;12.05;;;8.23;;
59766;SDS011;46248;58.364;25.582;2023-09-12T01:44:21;10.63;;;7.70;;
59766;SDS011;46248;58.364;25.582;2023-09-12T01:47:46;9.73;;;7.07;;
59766;SDS011;46248;58.364;25.582;2023-09-12T01:51:10;13.55;;;8.55;;
59766;SDS011;46248;58.364;25.582;2023-09-12T01:54:33;12.55;;;7.32;;
59766;SDS011;46248;58.364;25.582;2023-09-12T01:57:56;9.70;;;7.05;;
59766;SDS011;46248;58.364;25.582;2023-09-12T02:01:19;10.38;;;8.00;;
59766;SDS011;46248;58.364;25.582;2023-09-12T02:04:41;10.63;;;8.30;;
59766;SDS011;46248;58.364;25.582;2023-09-12T02:08:08;11.50;;;9.27;;
59766;SDS011;46248;58.364;25.582;2023-09-12T02:11:30;9.80;;;7.78;;
59766;SDS011;46248;58.364;25.582;2023-09-12T02:14:51;9.40;;;7.20;;
59766;SDS011;46248;58.364;25.582;2023-09-12T02:18:14;8.07;;;6.75;;
59766;SDS011;46248;58.364;25.582;2023-09-12T02:21:36;10.40;;;7.65;;
59766;SDS011;46248;58.364;25.582;2023-09-12T02:24:58;10.07;;;7.65;;
59766;SDS011;46248;58.364;25.582;2023-09-12T02:28:20;11.45;;;8.45;;
59766;SDS011;46248;58.364;25.582;2023-09-12T02:31:41;9.48;;;7.13;;
59766;SDS011;46248;58.364;25.582;2023-09-12T02:35:05;10.15;;;7.65;;
59766;SDS011;46248;58.364;25.582;2023-09-12T02:38:27;10.15;;;7.50;;
59766;SDS011;46248;58.364;25.582;2023-09-12T02:41:48;12.00;;;8.52;;
59766;SDS011;46248;58.364;25.582;2023-09-12T02:45:10;8.68;;;6.55;;
59766;SDS011;46248;58.364;25.582;2023-09-12T02:48:32;9.18;;;7.55;;
59766;SDS011;46248;58.364;25.582;2023-09-12T02:51:55;9.13;;;7.30;;
59766;SDS011;46248;58.364;25.582;2023-09-12T02:55:17;8.98;;;6.72;;
59766;SDS011;46248;58.364;25.582;2023-09-12T02:58:39;10.80;;;7.63;;
59766;SDS011;46248;58.364;25.582;2023-09-12T03:02:01;10.23;;;7.00;;
59766;SDS011;46248;58.364;25.582;2023-09-12T03:05:23;12.05;;;7.90;;
59766;SDS011;46248;58.364;25.582;2023-09-12T03:08:46;10.13;;;6.78;;
59766;SDS011;46248;58.364;25.582;2023-09-12T03:12:09;10.73;;;7.78;;
59766;SDS011;46248;58.364;25.582;2023-09-12T03:15:35;10.60;;;7.95;;
59766;SDS011;46248;58.364;25.582;2023-09-12T03:18:57;15.73;;;9.55;;
59766;SDS011;46248;58.364;25.582;2023-09-12T03:22:21;10.75;;;8.52;;
59766;SDS011;46248;58.364;25.582;2023-09-12T03:25:44;9.95;;;7.60;;
59766;SDS011;46248;58.364;25.582;2023-09-12T03:29:05;13.05;;;8.90;;
59766;SDS011;46248;58.364;25.582;2023-09-12T03:32:27;12.00;;;8.20;;
59766;SDS011;46248;58.364;25.582;2023-09-12T03:35:49;11.55;;;9.27;;
59766;SDS011;46248;58.364;25.582;2023-09-12T03:39:10;15.80;;;9.82;;
59766;SDS011;46248;58.364;25.582;2023-09-12T03:42:35;12.85;;;10.00;;
59766;SDS011;46248;58.364;25.582;2023-09-12T03:46:01;11.75;;;8.40;;
59766;SDS011;46248;58.364;25.582;2023-09-12T03:49:23;15.48;;;10.32;;
59766;SDS011;46248;58.364;25.582;2023-09-12T03:52:45;15.43;;;9.82;;
59766;SDS011;46248;58.364;25.582;2023-09-12T03:56:07;12.95;;;9.00;;
59766;SDS011;46248;58.364;25.582;2023-09-12T03:59:34;10.75;;;8.02;;
59766;SDS011;46248;58.364;25.582;2023-09-12T04:02:55;10.20;;;8.82;;
59766;SDS011;46248;58.364;25.582;2023-09-12T04:06:17;11.85;;;9.07;;
59766;SDS011;46248;58.364;25.582;2023-09-12T04:09:39;12.50;;;8.35;;
59766;SDS011;46248;58.364;25.582;2023-09-12T04:13:01;13.98;;;9.35;;
59766;SDS011;46248;58.364;25.582;2023-09-12T04:16:24;15.55;;;9.88;;
59766;SDS011;46248;58.364;25.582;2023-09-12T04:19:46;14.35;;;10.88;;
59766;SDS011;46248;58.364;25.582;2023-09-12T04:23:08;12.25;;;9.30;;
59766;SDS011;46248;58.364;25.582;2023-09-12T04:26:30;11.55;;;8.52;;
59766;SDS011;46248;58.364;25.582;2023-09-12T04:29:51;12.82;;;8.75;;
59766;SDS011;46248;58.364;25.582;2023-09-12T04:33:14;10.88;;;8.15;;
59766;SDS011;46248;58.364;25.582;2023-09-12T04:36:36;12.82;;;7.82;;
59766;SDS011;46248;58.364;25.582;2023-09-12T04:39:58;10.25;;;7.55;;
59766;SDS011;46248;58.364;25.582;2023-09-12T04:43:20;14.88;;;8.85;;
59766;SDS011;46248;58.364;25.582;2023-09-12T04:46:41;9.38;;;7.38;;
59766;SDS011;46248;58.364;25.582;2023-09-12T04:50:05;11.52;;;7.75;;
59766;SDS011;46248;58.364;25.582;2023-09-12T04:53:27;8.90;;;6.93;;
59766;SDS011;46248;58.364;25.582;2023-09-12T04:56:54;9.20;;;7.93;;
59766;SDS011;46248;58.364;25.582;2023-09-12T05:00:16;10.80;;;7.45;;
59766;SDS011;46248;58.364;25.582;2023-09-12T05:03:38;16.67;;;10.20;;
59766;SDS011;46248;58.364;25.582;2023-09-12T05:07:01;10.85;;;8.65;;
59766;SDS011;46248;58.364;25.582;2023-09-12T05:10:23;12.85;;;8.45;;
59766;SDS011;46248;58.364;25.582;2023-09-12T05:13:45;15.68;;;9.65;;
59766;SDS011;46248;58.364;25.582;2023-09-12T05:17:07;14.10;;;9.25;;
59766;SDS011;46248;58.364;25.582;2023-09-12T05:20:29;12.75;;;8.35;;
59766;SDS011;46248;58.364;25.582;2023-09-12T05:23:52;14.73;;;8.77;;
59766;SDS011;46248;58.364;25.582;2023-09-12T05:27:14;12.68;;;9.38;;
59766;SDS011;46248;58.364;25.582;2023-09-12T05:30:36;11.82;;;9.05;;
59766;SDS011;46248;58.364;25.582;2023-09-12T05:33:57;13.68;;;9.90;;
59766;SDS011;46248;58.364;25.582;2023-09-12T05:37:19;13.10;;;9.38;;
59766;SDS011;46248;58.364;25.582;2023-09-12T05:40:43;10.23;;;8.05;;
59766;SDS011;46248;58.364;25.582;2023-09-12T05:44:04;12.75;;;8.07;;
59766;SDS011;46248;58.364;25.582;2023-09-12T05:47:26;12.60;;;8.43;;
59766;SDS011;46248;58.364;25.582;2023-09-12T05:50:48;12.93;;;8.52;;
59766;SDS011;46248;58.364;25.582;2023-09-12T05:54:10;14.68;;;8.48;;
59766;SDS011;46248;58.364;25.582;2023-09-12T05:57:35;9.55;;;7.68;;
59766;SDS011;46248;58.364;25.582;2023-09-12T06:00:56;11.73;;;9.18;;
59766;SDS011;46248;58.364;25.582;2023-09-12T06:04:18;10.55;;;8.30;;
59766;SDS011;46248;58.364;25.582;2023-09-12T06:07:40;10.43;;;8.07;;
59766;SDS011;46248;58.364;25.582;2023-09-12T06:11:02;12.88;;;8.27;;
59766;SDS011;46248;58.364;25.582;2023-09-12T06:14:24;12.55;;;7.75;;
59766;SDS011;46248;58.364;25.582;2023-09-12T06:17:46;11.85;;;7.72;;
59766;SDS011;46248;58.364;25.582;2023-09-12T06:21:08;10.80;;;7.20;;
59766;SDS011;46248;58.364;25.582;2023-09-12T06:24:30;8.38;;;7.20;;
59766;SDS011;46248;58.364;25.582;2023-09-12T06:27:52;12.65;;;8.00;;
59766;SDS011;46248;58.364;25.582;2023-09-12T06:31:15;9.95;;;7.13;;
59766;SDS011;46248;58.364;25.582;2023-09-12T06:34:37;10.82;;;6.85;;
59766;SDS011;46248;58.364;25.582;2023-09-12T06:37:59;9.75;;;7.35;;
59766;SDS011;46248;58.364;25.582;2023-09-12T06:41:20;10.43;;;8.18;;
59766;SDS011;46248;58.364;25.582;2023-09-12T06:44:42;10.77;;;8.45;;
59766;SDS011;46248;58.364;25.582;2023-09-12T06:48:06;9.00;;;6.88;;
59766;SDS011;46248;58.364;25.582;2023-09-12T06:51:27;13.45;;;8.57;;
59766;SDS011;46248;58.364;25.582;2023-09-12T06:54:55;11.38;;;7.78;;
59766;SDS011;46248;58.364;25.582;2023-09-12T06:58:16;17.65;;;8.18;;
59766;SDS011;46248;58.364;25.582;2023-09-12T07:01:38;12.65;;;7.88;;
59766;SDS011;46248;58.364;25.582;2023-09-12T07:05:01;10.55;;;7.10;;
59766;SDS011;46248;58.364;25.582;2023-09-12T07:08:25;12.00;;;8.18;;
59766;SDS011;46248;58.364;25.582;2023-09-12T07:11:49;14.38;;;8.70;;
59766;SDS011;46248;58.364;25.582;2023-09-12T07:15:12;13.48;;;8.65;;
59766;SDS011;46248;58.364;25.582;2023-09-12T07:18:34;12.10;;;7.68;;
59766;SDS011;46248;58.364;25.582;2023-09-12T07:21:58;12.80;;;7.70;;
59766;SDS011;46248;58.364;25.582;2023-09-12T07:25:20;10.60;;;7.90;;
59766;SDS011;46248;58.364;25.582;2023-09-12T07:28:44;13.75;;;7.82;;
59766;SDS011;46248;58.364;25.582;2023-09-12T07:32:06;15.65;;;8.55;;
59766;SDS011;46248;58.364;25.582;2023-09-12T07:35:29;11.88;;;8.15;;
59766;SDS011;46248;58.364;25.582;2023-09-12T07:38:52;14.98;;;8.13;;
59766;SDS011;46248;58.364;25.582;2023-09-12T07:42:14;10.13;;;7.25;;
59766;SDS011;46248;58.364;25.582;2023-09-12T07:45:36;12.18;;;8.18;;
59766;SDS011;46248;58.364;25.582;2023-09-12T07:48:58;17.42;;;8.25;;
59766;SDS011;46248;58.364;25.582;2023-09-12T07:52:20;10.52;;;7.25;;
59766;SDS011;46248;58.364;25.582;2023-09-12T07:55:44;8.15;;;7.13;;
59766;SDS011;46248;58.364;25.582;2023-09-12T07:59:06;10.75;;;8.25;;
59766;SDS011;46248;58.364;25.582;2023-09-12T08:02:29;13.77;;;8.13;;
59766;SDS011;46248;58.364;25.582;2023-09-12T08:05:55;12.90;;;7.68;;
59766;SDS011;46248;58.364;25.582;2023-09-12T08:09:18;12.35;;;8.85;;
59766;SDS011;46248;58.364;25.582;2023-09-12T08:12:41;9.75;;;7.45;;
59766;SDS011;46248;58.364;25.582;2023-09-12T08:16:04;12.95;;;8.15;;
59766;SDS011;46248;58.364;25.582;2023-09-12T08:19:26;8.93;;;8.02;;
59766;SDS011;46248;58.364;25.582;2023-09-12T08:22:48;14.65;;;9.20;;
59766;SDS011;46248;58.364;25.582;2023-09-12T08:26:11;14.35;;;8.20;;
59766;SDS011;46248;58.364;25.582;2023-09-12T08:29:34;12.10;;;8.30;;
59766;SDS011;46248;58.364;25.582;2023-09-12T08:32:57;12.43;;;8.23;;
59766;SDS011;46248;58.364;25.582;2023-09-12T08:36:19;13.55;;;9.32;;
59766;SDS011;46248;58.364;25.582;2023-09-12T08:39:42;11.18;;;7.97;;
59766;SDS011;46248;58.364;25.582;2023-09-12T08:43:05;11.25;;;8.05;;
59766;SDS011;46248;58.364;25.582;2023-09-12T08:46:29;11.63;;;7.95;;
59766;SDS011;46248;58.364;25.582;2023-09-12T08:49:51;8.80;;;7.57;;
59766;SDS011;46248;58.364;25.582;2023-09-12T08:53:14;12.73;;;8.18;;
59766;SDS011;46248;58.364;25.582;2023-09-12T08:56:39;11.23;;;7.93;;
59766;SDS011;46248;58.364;25.582;2023-09-12T09:00:03;12.45;;;9.65;;
59766;SDS011;46248;58.364;25.582;2023-09-12T09:03:30;9.88;;;8.25;;
59766;SDS011;46248;58.364;25.582;2023-09-12T09:06:53;13.02;;;7.88;;
59766;SDS011;46248;58.364;25.582;2023-09-12T09:10:18;10.32;;;6.85;;
59766;SDS011;46248;58.364;25.582;2023-09-12T09:14:01;10.77;;;8.02;;
59766;SDS011;46248;58.364;25.582;2023-09-12T09:17:24;10.95;;;7.20;;
59766;SDS011;46248;58.364;25.582;2023-09-12T09:20:55;15.75;;;8.93;;
59766;SDS011;46248;58.364;25.582;2023-09-12T09:24:17;9.98;;;7.80;;
59766;SDS011;46248;58.364;25.582;2023-09-12T09:27:42;10.40;;;7.50;;
59766;SDS011;46248;58.364;25.582;2023-09-12T09:31:05;9.40;;;7.38;;
59766;SDS011;46248;58.364;25.582;2023-09-12T09:34:32;9.32;;;7.15;;
59766;SDS011;46248;58.364;25.582;2023-09-12T09:38:05;11.23;;;6.55;;
59766;SDS011;46248;58.364;25.582;2023-09-12T09:41:28;11.52;;;7.30;;
59766;SDS011;46248;58.364;25.582;2023-09-12T09:44:50;11.65;;;7.00;;
59766;SDS011;46248;58.364;25.582;2023-09-12T09:48:17;14.85;;;6.90;;
59766;SDS011;46248;58.364;25.582;2023-09-12T09:51:40;8.80;;;6.50;;
59766;SDS011;46248;58.364;25.582;2023-09-12T09:55:05;15.40;;;6.50;;
59766;SDS011;46248;58.364;25.582;2023-09-12T09:58:28;10.00;;;6.18;;
59766;SDS011;46248;58.364;25.582;2023-09-12T10:01:51;9.45;;;6.30;;
59766;SDS011;46248;58.364;25.582;2023-09-12T10:05:17;9.93;;;6.20;;
59766;SDS011;46248;58.364;25.582;2023-09-12T10:08:39;9.80;;;5.85;;
59766;SDS011;46248;58.364;25.582;2023-09-12T10:12:06;11.45;;;5.68;;
59766;SDS011;46248;58.364;25.582;2023-09-12T10:15:29;10.02;;;6.00;;
59766;SDS011;46248;58.364;25.582;2023-09-12T10:18:55;11.63;;;5.72;;
59766;SDS011;46248;58.364;25.582;2023-09-12T10:25:43;12.98;;;6.32;;
59766;SDS011;46248;58.364;25.582;2023-09-12T10:29:08;11.48;;;6.10;;
59766;SDS011;46248;58.364;25.582;2023-09-12T10:32:33;14.13;;;7.28;;
59766;SDS011;46248;58.364;25.582;2023-09-12T10:35:57;13.00;;;7.57;;
59766;SDS011;46248;58.364;25.582;2023-09-12T10:39:21;12.30;;;5.55;;
59766;SDS011;46248;58.364;25.582;2023-09-12T10:42:45;9.57;;;5.78;;
59766;SDS011;46248;58.364;25.582;2023-09-12T10:46:11;10.82;;;5.75;;
59766;SDS011;46248;58.364;25.582;2023-09-12T10:49:33;10.57;;;5.32;;
59766;SDS011;46248;58.364;25.582;2023-09-12T10:52:56;11.18;;;6.03;;
59766;SDS011;46248;58.364;25.582;2023-09-12T10:56:29;10.32;;;5.15;;
59766;SDS011;46248;58.364;25.582;2023-09-12T11:00:11;11.20;;;5.70;;
59766;SDS011;46248;58.364;25.582;2023-09-12T11:03:37;9.50;;;5.63;;
59766;SDS011;46248;58.364;25.582;2023-09-12T11:07:00;11.43;;;6.00;;
59766;SDS011;46248;58.364;25.582;2023-09-12T11:10:23;10.48;;;5.32;;
59766;SDS011;46248;58.364;25.582;2023-09-12T11:13:46;10.15;;;6.43;;
59766;SDS011;46248;58.364;25.582;2023-09-12T11:17:24;12.13;;;5.85;;
59766;SDS011;46248;58.364;25.582;2023-09-12T11:20:52;11.05;;;6.28;;
59766;SDS011;46248;58.364;25.582;2023-09-12T11:24:23;13.07;;;6.28;;
59766;SDS011;46248;58.364;25.582;2023-09-12T11:28:01;11.73;;;6.97;;
59766;SDS011;46248;58.364;25.582;2023-09-12T11:31:25;8.57;;;6.30;;
59766;SDS011;46248;58.364;25.582;2023-09-12T11:34:47;10.40;;;6.22;;
59766;SDS011;46248;58.364;25.582;2023-09-12T11:38:11;8.82;;;6.15;;
59766;SDS011;46248;58.364;25.582;2023-09-12T11:41:47;15.70;;;7.33;;
59766;SDS011;46248;58.364;25.582;2023-09-12T11:45:09;11.13;;;6.75;;
59766;SDS011;46248;58.364;25.582;2023-09-12T11:48:32;15.73;;;7.05;;
59766;SDS011;46248;58.364;25.582;2023-09-12T11:51:53;13.05;;;7.30;;
59766;SDS011;46248;58.364;25.582;2023-09-12T11:55:23;12.25;;;6.65;;
59766;SDS011;46248;58.364;25.582;2023-09-12T11:58:44;12.43;;;6.72;;
59766;SDS011;46248;58.364;25.582;2023-09-12T12:02:06;9.25;;;6.60;;
59766;SDS011;46248;58.364;25.582;2023-09-12T12:05:28;12.50;;;6.10;;
59766;SDS011;46248;58.364;25.582;2023-09-12T12:08:50;10.80;;;6.05;;
59766;SDS011;46248;58.364;25.582;2023-09-12T12:12:15;12.65;;;6.80;;
59766;SDS011;46248;58.364;25.582;2023-09-12T12:15:37;12.63;;;7.93;;
59766;SDS011;46248;58.364;25.582;2023-09-12T12:18:59;10.85;;;6.70;;
59766;SDS011;46248;58.364;25.582;2023-09-12T12:22:20;11.48;;;6.95;;
59766;SDS011;46248;58.364;25.582;2023-09-12T12:25:42;8.15;;;6.75;;
59766;SDS011;46248;58.364;25.582;2023-09-12T12:29:05;10.52;;;7.07;;
59766;SDS011;46248;58.364;25.582;2023-09-12T12:32:27;8.07;;;6.28;;
59766;SDS011;46248;58.364;25.582;2023-09-12T12:35:49;13.07;;;7.57;;
59766;SDS011;46248;58.364;25.582;2023-09-12T12:39:20;15.10;;;7.00;;
59766;SDS011;46248;58.364;25.582;2023-09-12T12:42:42;9.88;;;6.53;;
59766;SDS011;46248;58.364;25.582;2023-09-12T12:46:15;9.95;;;7.32;;
59766;SDS011;46248;58.364;25.582;2023-09-12T12:49:38;11.05;;;7.07;;
59766;SDS011;46248;58.364;25.582;2023-09-12T12:53:00;9.18;;;6.72;;
59766;SDS011;46248;58.364;25.582;2023-09-12T12:56:22;9.10;;;6.43;;
59766;SDS011;46248;58.364;25.582;2023-09-12T12:59:50;8.57;;;6.22;;
59766;SDS011;46248;58.364;25.582;2023-09-12T13:03:13;8.38;;;6.40;;
59766;SDS011;46248;58.364;25.582;2023-09-12T13:06:35;9.10;;;6.93;;
59766;SDS011;46248;58.364;25.582;2023-09-12T13:09:58;12.20;;;7.75;;
59766;SDS011;46248;58.364;25.582;2023-09-12T13:13:20;14.45;;;7.18;;
59766;SDS011;46248;58.364;25.582;2023-09-12T13:16:42;13.88;;;8.35;;
59766;SDS011;46248;58.364;25.582;2023-09-12T13:20:05;9.73;;;6.97;;
59766;SDS011;46248;58.364;25.582;2023-09-12T13:23:28;10.82;;;7.63;;
59766;SDS011;46248;58.364;25.582;2023-09-12T13:26:51;12.98;;;8.20;;
59766;SDS011;46248;58.364;25.582;2023-09-12T13:30:13;10.60;;;7.10;;
59766;SDS011;46248;58.364;25.582;2023-09-12T13:33:35;7.90;;;6.65;;
59766;SDS011;46248;58.364;25.582;2023-09-12T13:36:58;10.68;;;7.18;;
59766;SDS011;46248;58.364;25.582;2023-09-12T13:40:31;11.82;;;7.30;;
59766;SDS011;46248;58.364;25.582;2023-09-12T13:43:53;9.57;;;7.35;;
59766;SDS011;46248;58.364;25.582;2023-09-12T13:47:15;13.73;;;7.57;;
59766;SDS011;46248;58.364;25.582;2023-09-12T13:50:42;13.93;;;7.45;;
59766;SDS011;46248;58.364;25.582;2023-09-12T13:54:05;8.40;;;6.70;;
59766;SDS011;46248;58.364;25.582;2023-09-12T13:57:34;10.95;;;6.80;;
59766;SDS011;46248;58.364;25.582;2023-09-12T14:01:10;14.65;;;7.35;;
59766;SDS011;46248;58.364;25.582;2023-09-12T14:04:44;10.25;;;7.50;;
59766;SDS011;46248;58.364;25.582;2023-09-12T14:08:09;13.95;;;8.07;;
59766;SDS011;46248;58.364;25.582;2023-09-12T14:11:33;13.10;;;7.35;;
59766;SDS011;46248;58.364;25.582;2023-09-12T14:14:56;10.23;;;6.15;;
59766;SDS011;46248;58.364;25.582;2023-09-12T14:18:27;12.82;;;8.45;;
59766;SDS011;46248;58.364;25.582;2023-09-12T14:21:50;13.02;;;7.72;;
59766;SDS011;46248;58.364;25.582;2023-09-12T14:25:13;14.18;;;7.90;;
59766;SDS011;46248;58.364;25.582;2023-09-12T14:28:37;9.80;;;6.55;;
59766;SDS011;46248;58.364;25.582;2023-09-12T14:32:00;11.82;;;5.95;;
59766;SDS011;46248;58.364;25.582;2023-09-12T14:35:22;10.82;;;6.82;;
59766;SDS011;46248;58.364;25.582;2023-09-12T14:38:43;9.73;;;7.43;;
59766;SDS011;46248;58.364;25.582;2023-09-12T14:42:05;13.05;;;7.43;;
59766;SDS011;46248;58.364;25.582;2023-09-12T14:45:30;12.10;;;7.55;;
59766;SDS011;46248;58.364;25.582;2023-09-12T14:48:55;16.52;;;7.20;;
59766;SDS011;46248;58.364;25.582;2023-09-12T14:52:21;11.13;;;6.90;;
59766;SDS011;46248;58.364;25.582;2023-09-12T14:55:49;11.25;;;6.57;;
59766;SDS011;46248;58.364;25.582;2023-09-12T14:59:11;10.15;;;7.18;;
59766;SDS011;46248;58.364;25.582;2023-09-12T15:02:34;8.45;;;6.28;;
59766;SDS011;46248;58.364;25.582;2023-09-12T15:05:57;10.75;;;7.60;;
59766;SDS011;46248;58.364;25.582;2023-09-12T15:09:18;8.00;;;6.22;;
59766;SDS011;46248;58.364;25.582;2023-09-12T15:12:40;10.70;;;7.00;;
59766;SDS011;46248;58.364;25.582;2023-09-12T15:16:02;11.05;;;6.82;;
59766;SDS011;46248;58.364;25.582;2023-09-12T15:19:25;9.68;;;7.03;;
59766;SDS011;46248;58.364;25.582;2023-09-12T15:22:47;11.70;;;6.85;;
59766;SDS011;46248;58.364;25.582;2023-09-12T15:26:08;11.90;;;6.53;;
59766;SDS011;46248;58.364;25.582;2023-09-12T15:29:30;10.75;;;6.80;;
59766;SDS011;46248;58.364;25.582;2023-09-12T15:32:52;12.50;;;7.95;;
59766;SDS011;46248;58.364;25.582;2023-09-12T15:36:15;11.05;;;7.15;;
59766;SDS011;46248;58.364;25.582;2023-09-12T15:39:37;10.23;;;7.30;;
59766;SDS011;46248;58.364;25.582;2023-09-12T15:42:59;11.27;;;7.63;;
59766;SDS011;46248;58.364;25.582;2023-09-12T15:46:40;10.95;;;7.57;;
59766;SDS011;46248;58.364;25.582;2023-09-12T15:50:02;10.90;;;6.95;;
59766;SDS011;46248;58.364;25.582;2023-09-12T15:53:26;8.32;;;5.70;;
59766;SDS011;46248;58.364;25.582;2023-09-12T15:56:47;17.95;;;10.40;;
59766;SDS011;46248;58.364;25.582;2023-09-12T16:00:09;16.83;;;10.68;;
59766;SDS011;46248;58.364;25.582;2023-09-12T16:03:32;17.33;;;10.27;;
59766;SDS011;46248;58.364;25.582;2023-09-12T16:06:55;14.15;;;8.30;;
59766;SDS011;46248;58.364;25.582;2023-09-12T16:10:18;9.70;;;7.18;;
59766;SDS011;46248;58.364;25.582;2023-09-12T16:13:39;13.68;;;8.77;;
59766;SDS011;46248;58.364;25.582;2023-09-12T16:17:02;15.40;;;8.75;;
59766;SDS011;46248;58.364;25.582;2023-09-12T16:20:23;11.77;;;8.55;;
59766;SDS011;46248;58.364;25.582;2023-09-12T16:23:45;14.10;;;8.55;;
59766;SDS011;46248;58.364;25.582;2023-09-12T16:27:08;10.77;;;8.07;;
59766;SDS011;46248;58.364;25.582;2023-09-12T16:30:30;12.15;;;7.05;;
59766;SDS011;46248;58.364;25.582;2023-09-12T16:33:52;11.85;;;8.55;;
59766;SDS011;46248;58.364;25.582;2023-09-12T16:37:14;11.40;;;7.80;;
59766;SDS011;46248;58.364;25.582;2023-09-12T16:40:36;10.05;;;7.72;;
59766;SDS011;46248;58.364;25.582;2023-09-12T16:44:00;10.52;;;7.47;;
59766;SDS011;46248;58.364;25.582;2023-09-12T16:47:22;12.77;;;7.97;;
59766;SDS011;46248;58.364;25.582;2023-09-12T16:50:45;9.23;;;7.28;;
59766;SDS011;46248;58.364;25.582;2023-09-12T16:54:07;13.00;;;8.20;;
59766;SDS011;46248;58.364;25.582;2023-09-12T16:57:28;12.43;;;7.50;;
59766;SDS011;46248;58.364;25.582;2023-09-12T17:00:52;11.20;;;7.43;;
59766;SDS011;46248;58.364;25.582;2023-09-12T17:04:14;9.63;;;7.55;;
59766;SDS011;46248;58.364;25.582;2023-09-12T17:07:36;15.10;;;7.32;;
59766;SDS011;46248;58.364;25.582;2023-09-12T17:10:58;12.73;;;8.05;;
59766;SDS011;46248;58.364;25.582;2023-09-12T17:14:20;13.55;;;8.23;;
59766;SDS011;46248;58.364;25.582;2023-09-12T17:17:43;11.73;;;8.18;;
59766;SDS011;46248;58.364;25.582;2023-09-12T17:21:04;12.65;;;8.18;;
59766;SDS011;46248;58.364;25.582;2023-09-12T17:24:26;10.82;;;8.15;;
59766;SDS011;46248;58.364;25.582;2023-09-12T17:27:48;12.43;;;7.15;;
59766;SDS011;46248;58.364;25.582;2023-09-12T17:31:10;13.25;;;7.65;;
59766;SDS011;46248;58.364;25.582;2023-09-12T17:34:40;10.38;;;7.13;;
59766;SDS011;46248;58.364;25.582;2023-09-12T17:38:03;13.40;;;8.55;;
59766;SDS011;46248;58.364;25.582;2023-09-12T17:41:24;13.07;;;7.70;;
59766;SDS011;46248;58.364;25.582;2023-09-12T17:44:46;12.38;;;8.15;;
59766;SDS011;46248;58.364;25.582;2023-09-12T17:48:08;14.10;;;8.05;;
59766;SDS011;46248;58.364;25.582;2023-09-12T17:51:31;12.95;;;7.43;;
59766;SDS011;46248;58.364;25.582;2023-09-12T17:54:54;11.35;;;7.63;;
59766;SDS011;46248;58.364;25.582;2023-09-12T17:58:15;10.55;;;8.02;;
59766;SDS011;46248;58.364;25.582;2023-09-12T18:01:37;14.48;;;8.75;;
59766;SDS011;46248;58.364;25.582;2023-09-12T18:04:59;10.73;;;7.63;;
59766;SDS011;46248;58.364;25.582;2023-09-12T18:08:23;13.80;;;8.60;;
59766;SDS011;46248;58.364;25.582;2023-09-12T18:11:45;11.15;;;8.50;;
59766;SDS011;46248;58.364;25.582;2023-09-12T18:15:07;11.60;;;7.68;;
59766;SDS011;46248;58.364;25.582;2023-09-12T18:18:32;13.85;;;8.00;;
59766;SDS011;46248;58.364;25.582;2023-09-12T18:21:54;11.15;;;7.82;;
59766;SDS011;46248;58.364;25.582;2023-09-12T18:25:17;13.43;;;8.13;;
59766;SDS011;46248;58.364;25.582;2023-09-12T18:28:39;14.43;;;9.18;;
59766;SDS011;46248;58.364;25.582;2023-09-12T18:32:03;12.98;;;8.85;;
59766;SDS011;46248;58.364;25.582;2023-09-12T18:35:25;10.25;;;7.85;;
59766;SDS011;46248;58.364;25.582;2023-09-12T18:38:47;12.70;;;8.43;;
59766;SDS011;46248;58.364;25.582;2023-09-12T18:42:11;10.77;;;7.88;;
59766;SDS011;46248;58.364;25.582;2023-09-12T18:45:32;13.43;;;8.80;;
59766;SDS011;46248;58.364;25.582;2023-09-12T18:48:54;10.65;;;8.50;;
59766;SDS011;46248;58.364;25.582;2023-09-12T18:52:16;12.82;;;9.68;;
59766;SDS011;46248;58.364;25.582;2023-09-12T18:55:38;15.70;;;10.43;;
59766;SDS011;46248;58.364;25.582;2023-09-12T18:59:01;11.88;;;9.55;;
59766;SDS011;46248;58.364;25.582;2023-09-12T19:02:23;12.60;;;9.23;;
59766;SDS011;46248;58.364;25.582;2023-09-12T19:05:45;16.27;;;9.98;;
59766;SDS011;46248;58.364;25.582;2023-09-12T19:09:07;14.65;;;8.88;;
59766;SDS011;46248;58.364;25.582;2023-09-12T19:12:29;13.73;;;9.05;;
59766;SDS011;46248;58.364;25.582;2023-09-12T19:15:52;11.60;;;9.15;;
59766;SDS011;46248;58.364;25.582;2023-09-12T19:19:14;13.68;;;8.80;;
59766;SDS011;46248;58.364;25.582;2023-09-12T19:22:35;14.23;;;9.68;;
59766;SDS011;46248;58.364;25.582;2023-09-12T19:26:00;11.82;;;8.65;;
59766;SDS011;46248;58.364;25.582;2023-09-12T19:29:22;13.75;;;9.77;;
59766;SDS011;46248;58.364;25.582;2023-09-12T19:32:45;11.88;;;9.45;;
59766;SDS011;46248;58.364;25.582;2023-09-12T19:36:06;15.23;;;9.80;;
59766;SDS011;46248;58.364;25.582;2023-09-12T19:42:57;8.38;;;7.30;;
59766;SDS011;46248;58.364;25.582;2023-09-12T19:46:19;12.23;;;8.85;;
59766;SDS011;46248;58.364;25.582;2023-09-12T19:49:42;12.52;;;8.25;;
59766;SDS011;46248;58.364;25.582;2023-09-12T19:53:04;13.35;;;8.82;;
59766;SDS011;46248;58.364;25.582;2023-09-12T19:56:26;10.60;;;7.13;;
59766;SDS011;46248;58.364;25.582;2023-09-12T19:59:48;10.32;;;7.53;;